Time;durP1;ratioP1;P1;durP2;ratioP2;P2;SDS_P1;SDS_P2;PMS_P1;PMS_P2;Temp;Humidity;BMP_temperature;BMP_pressure;BME280_temperature;BME280_humidity;BME280_pressure;Samples;Min_cycle;Max_cycle;Signal;HPM_P1;HPM_P2
2023/04/16 00:00:21;;;;;;;8.32;3.55;;;11.50;99.90;;;;;;5116821;27;20011;-69
2023/04/16 00:02:47;;;;;;;10.93;3.95;;;11.50;99.90;;;;;;5114488;27;20035;-68
2023/04/16 00:05:13;;;;;;;10.60;4.47;;;11.50;99.90;;;;;;5116438;27;20061;-69
2023/04/16 00:07:39;;;;;;;12.50;4.60;;;11.60;99.90;;;;;;5114235;27;20043;-69
2023/04/16 00:10:06;;;;;;;9.85;3.95;;;11.50;99.90;;;;;;5117239;27;20023;-69
2023/04/16 00:12:32;;;;;;;14.93;4.90;;;11.50;99.90;;;;;;5117950;27;20035;-69
2023/04/16 00:14:58;;;;;;;12.95;3.97;;;11.50;99.90;;;;;;5114146;27;20072;-69
2023/04/16 00:17:24;;;;;;;15.52;4.90;;;11.50;99.90;;;;;;5114739;27;20034;-69
2023/04/16 00:19:50;;;;;;;5.47;3.80;;;11.50;99.90;;;;;;5117683;27;20031;-69
2023/04/16 00:22:15;;;;;;;9.02;3.95;;;11.50;99.90;;;;;;5115015;27;20026;-69
2023/04/16 00:24:41;;;;;;;9.60;3.58;;;11.50;99.90;;;;;;5115481;27;20019;-69
2023/04/16 00:27:07;;;;;;;10.73;4.50;;;11.40;99.90;;;;;;5113572;27;20156;-69
2023/04/16 00:29:33;;;;;;;7.93;3.50;;;11.50;99.90;;;;;;5112991;27;20456;-70
2023/04/16 00:31:59;;;;;;;9.48;4.45;;;11.40;99.90;;;;;;5114820;27;20110;-68
2023/04/16 00:34:25;;;;;;;8.48;4.35;;;11.40;99.90;;;;;;5119027;27;20416;-69
2023/04/16 00:36:50;;;;;;;8.88;4.32;;;11.40;99.90;;;;;;5115472;27;20019;-69
2023/04/16 00:39:16;;;;;;;10.63;3.90;;;11.50;99.90;;;;;;5116800;27;20020;-68
2023/04/16 00:41:43;;;;;;;8.27;4.40;;;11.40;99.90;;;;;;5114655;27;20125;-69
2023/04/16 00:44:08;;;;;;;7.30;4.10;;;11.50;99.90;;;;;;5118400;27;20055;-69
2023/04/16 00:46:35;;;;;;;11.40;4.43;;;11.40;99.90;;;;;;5130273;27;20063;-68
2023/04/16 00:49:01;;;;;;;7.90;4.03;;;11.40;99.90;;;;;;5131677;27;20030;-68
2023/04/16 00:51:27;;;;;;;7.82;3.95;;;11.40;99.90;;;;;;5133204;27;20486;-69
2023/04/16 00:53:53;;;;;;;14.45;5.10;;;11.40;99.90;;;;;;5132725;27;20019;-69
2023/04/16 00:56:21;;;;;;;9.43;4.30;;;11.40;99.90;;;;;;5133157;27;20035;-69
2023/04/16 00:58:46;;;;;;;13.13;4.70;;;11.50;99.90;;;;;;5133281;27;20015;-71
2023/04/16 01:01:15;;;;;;;9.93;4.07;;;11.40;99.90;;;;;;5131602;27;20033;-70
2023/04/16 01:03:46;;;;;;;13.20;5.03;;;11.40;99.90;;;;;;5131434;27;20031;-70
2023/04/16 01:06:12;;;;;;;8.35;5.00;;;11.40;99.90;;;;;;5132499;27;20036;-69
2023/04/16 01:08:38;;;;;;;11.88;4.72;;;11.40;99.90;;;;;;5117035;27;20035;-69
2023/04/16 01:11:04;;;;;;;9.48;4.70;;;11.40;99.90;;;;;;5118957;28;20113;-70
2023/04/16 01:13:30;;;;;;;13.63;4.63;;;11.40;99.90;;;;;;5131982;27;20027;-69
2023/04/16 01:15:56;;;;;;;11.60;5.07;;;11.40;99.90;;;;;;5130577;27;20030;-70
2023/04/16 01:18:24;;;;;;;12.88;4.65;;;11.40;99.90;;;;;;5118501;27;20103;-68
2023/04/16 01:20:50;;;;;;;11.38;4.88;;;11.40;99.90;;;;;;5129386;28;20106;-69
2023/04/16 01:23:17;;;;;;;13.85;4.90;;;11.40;99.90;;;;;;5128777;28;20428;-71
2023/04/16 01:25:43;;;;;;;12.75;5.25;;;11.40;99.90;;;;;;5132697;27;20019;-69
2023/04/16 01:28:09;;;;;;;13.32;5.07;;;11.40;99.90;;;;;;5131697;28;20080;-69
2023/04/16 01:30:35;;;;;;;12.50;5.38;;;11.40;99.90;;;;;;5123631;27;20016;-70
2023/04/16 01:33:01;;;;;;;13.00;5.97;;;11.40;99.90;;;;;;5123674;28;20064;-68
2023/04/16 01:35:27;;;;;;;14.98;5.00;;;11.40;99.90;;;;;;5132515;27;20099;-69
2023/04/16 01:37:53;;;;;;;8.75;5.28;;;11.40;99.90;;;;;;5131539;27;20059;-68
2023/04/16 01:40:19;;;;;;;10.10;5.70;;;11.40;99.90;;;;;;5129312;28;20023;-69
2023/04/16 01:42:44;;;;;;;12.48;5.30;;;11.40;99.90;;;;;;5132379;27;20058;-69
2023/04/16 01:45:10;;;;;;;13.57;5.50;;;11.40;99.90;;;;;;5132795;28;20022;-70
2023/04/16 01:47:36;;;;;;;9.82;5.40;;;11.40;99.90;;;;;;5131684;27;20032;-69
2023/04/16 01:50:03;;;;;;;10.75;6.00;;;11.40;99.90;;;;;;5132914;28;20027;-69
2023/04/16 01:52:29;;;;;;;7.45;5.82;;;11.40;99.90;;;;;;5132687;27;20015;-69
2023/04/16 01:54:55;;;;;;;13.77;6.25;;;11.40;99.90;;;;;;5132316;28;20031;-71
2023/04/16 01:57:21;;;;;;;14.98;6.18;;;11.30;99.90;;;;;;5131434;27;20026;-69
2023/04/16 01:59:46;;;;;;;13.50;6.53;;;11.40;99.90;;;;;;5130460;27;20023;-70
2023/04/16 02:02:15;;;;;;;11.70;5.70;;;11.40;99.90;;;;;;5132311;28;20200;-69
2023/04/16 02:04:43;;;;;;;13.38;6.22;;;11.40;99.90;;;;;;5132642;27;20023;-69
2023/04/16 02:07:10;;;;;;;14.32;6.85;;;11.40;99.90;;;;;;5131424;27;20485;-69
2023/04/16 02:09:37;;;;;;;17.15;7.25;;;11.40;99.90;;;;;;5132603;27;20023;-69
2023/04/16 02:12:03;;;;;;;16.92;6.85;;;11.40;99.90;;;;;;5129345;27;20042;-69
2023/04/16 02:14:30;;;;;;;14.32;7.57;;;11.30;99.90;;;;;;5130191;27;20023;-69
2023/04/16 02:16:56;;;;;;;16.15;6.90;;;11.30;99.90;;;;;;5134083;27;20046;-69
2023/04/16 02:19:21;;;;;;;18.65;8.38;;;11.30;99.90;;;;;;5136116;27;20506;-69
2023/04/16 02:21:47;;;;;;;14.13;7.82;;;11.40;99.90;;;;;;5134923;27;20014;-69
2023/04/16 02:24:13;;;;;;;18.33;8.98;;;11.40;99.90;;;;;;5136240;27;20414;-69
2023/04/16 02:26:39;;;;;;;15.77;7.70;;;11.40;99.90;;;;;;5135460;27;20031;-68
2023/04/16 02:29:05;;;;;;;13.98;7.47;;;11.40;99.90;;;;;;5135571;27;20037;-69
2023/04/16 02:31:31;;;;;;;16.27;9.02;;;11.40;99.90;;;;;;5115579;28;20019;-68
2023/04/16 02:33:56;;;;;;;14.82;7.93;;;11.40;99.90;;;;;;5113397;28;20024;-69
2023/04/16 02:36:22;;;;;;;17.50;8.70;;;11.30;99.90;;;;;;5125456;27;20128;-68
2023/04/16 02:38:48;;;;;;;15.43;9.10;;;11.30;99.90;;;;;;5136226;27;20027;-69
2023/04/16 02:41:14;;;;;;;17.13;8.25;;;11.30;99.90;;;;;;5135379;27;20113;-69
2023/04/16 02:43:39;;;;;;;13.95;8.50;;;11.40;99.90;;;;;;5135633;27;20038;-69
2023/04/16 02:46:05;;;;;;;18.55;8.98;;;11.30;99.90;;;;;;5133843;27;20022;-69
2023/04/16 02:48:31;;;;;;;21.02;9.35;;;11.40;99.90;;;;;;5135910;27;20049;-68
2023/04/16 02:50:57;;;;;;;16.73;9.07;;;11.30;99.90;;;;;;5135945;27;20068;-69
2023/04/16 02:53:23;;;;;;;13.63;9.15;;;11.40;99.90;;;;;;5135193;27;20035;-69
2023/04/16 02:55:53;;;;;;;18.08;9.85;;;11.40;99.90;;;;;;5135990;27;20540;-69
2023/04/16 02:58:25;;;;;;;18.90;9.30;;;11.40;99.90;;;;;;5134885;27;20498;-68
2023/04/16 03:00:53;;;;;;;20.63;10.63;;;11.40;99.90;;;;;;5135063;27;20050;-68
2023/04/16 03:03:19;;;;;;;16.13;9.18;;;11.40;99.90;;;;;;5135882;27;20106;-69
2023/04/16 03:05:44;;;;;;;15.70;10.00;;;11.40;99.90;;;;;;5134582;27;20023;-69
2023/04/16 03:08:10;;;;;;;16.40;9.18;;;11.40;99.90;;;;;;5135637;27;20080;-68
2023/04/16 03:10:36;;;;;;;21.65;9.75;;;11.40;99.90;;;;;;5135102;27;20577;-68
2023/04/16 03:13:02;;;;;;;17.02;9.95;;;11.30;99.90;;;;;;5134887;27;20593;-68
2023/04/16 03:15:28;;;;;;;18.25;10.40;;;11.30;99.90;;;;;;5134263;27;20027;-69
2023/04/16 03:17:54;;;;;;;16.15;9.45;;;11.30;99.90;;;;;;5135433;27;20562;-70
2023/04/16 03:20:20;;;;;;;21.27;9.85;;;11.40;99.90;;;;;;5134834;27;20022;-69
2023/04/16 03:22:46;;;;;;;17.67;10.02;;;11.40;99.90;;;;;;5134028;27;20545;-68
2023/04/16 03:25:12;;;;;;;20.25;10.70;;;11.40;99.90;;;;;;5134890;27;20019;-69
2023/04/16 03:27:41;;;;;;;18.35;9.82;;;11.30;99.90;;;;;;5134251;27;20487;-68
2023/04/16 03:30:09;;;;;;;15.93;9.98;;;11.40;99.90;;;;;;5135413;27;20414;-69
2023/04/16 03:32:36;;;;;;;19.63;10.77;;;11.30;99.90;;;;;;5133758;27;20019;-69
2023/04/16 03:35:02;;;;;;;17.45;10.90;;;11.30;99.90;;;;;;5133860;27;20023;-68
2023/04/16 03:37:28;;;;;;;21.88;12.30;;;11.30;99.90;;;;;;5133075;27;20383;-68
2023/04/16 03:39:54;;;;;;;23.15;11.48;;;11.30;99.90;;;;;;5134229;27;20030;-70
2023/04/16 03:42:19;;;;;;;15.57;11.02;;;11.30;99.90;;;;;;5134727;27;20035;-69
2023/04/16 03:44:45;;;;;;;19.23;11.18;;;11.30;99.90;;;;;;5134690;27;20525;-68
2023/04/16 03:47:11;;;;;;;15.73;11.55;;;11.40;99.90;;;;;;5134730;27;20031;-69
2023/04/16 03:49:36;;;;;;;16.00;11.65;;;11.30;99.90;;;;;;5134845;27;20021;-69
2023/04/16 03:52:02;;;;;;;18.35;10.85;;;11.30;99.90;;;;;;5135019;27;20102;-68
2023/04/16 03:54:28;;;;;;;18.17;10.88;;;11.30;99.90;;;;;;5134708;27;20019;-70
2023/04/16 03:56:53;;;;;;;19.30;11.60;;;11.30;99.90;;;;;;5133242;27;20452;-68
2023/04/16 03:59:19;;;;;;;17.70;10.73;;;11.30;99.90;;;;;;5134800;27;20031;-69
2023/04/16 04:01:45;;;;;;;21.98;11.77;;;11.30;99.90;;;;;;5134439;27;20023;-69
2023/04/16 04:04:10;;;;;;;19.50;11.73;;;11.30;99.90;;;;;;5132834;27;20076;-69
2023/04/16 04:06:36;;;;;;;15.90;11.32;;;11.40;99.90;;;;;;5134209;27;20023;-69
2023/04/16 04:09:02;;;;;;;22.65;12.35;;;11.30;99.90;;;;;;5134159;27;20050;-69
2023/04/16 04:11:27;;;;;;;23.05;12.57;;;11.30;99.90;;;;;;5132753;27;20451;-68
2023/04/16 04:13:53;;;;;;;21.58;13.25;;;11.20;99.90;;;;;;5132573;27;20057;-68
2023/04/16 04:16:18;;;;;;;24.00;13.98;;;11.10;99.90;;;;;;5133631;27;20027;-68
2023/04/16 04:18:44;;;;;;;20.55;13.45;;;11.10;99.90;;;;;;5134070;27;20015;-68
2023/04/16 04:21:10;;;;;;;24.88;14.30;;;11.20;99.90;;;;;;5133940;27;20087;-69
2023/04/16 04:23:36;;;;;;;21.58;14.88;;;11.10;99.90;;;;;;5134104;27;20016;-68
2023/04/16 04:26:02;;;;;;;26.88;15.25;;;11.20;99.90;;;;;;5133465;27;20031;-68
2023/04/16 04:28:29;;;;;;;26.17;14.57;;;11.30;99.90;;;;;;5134303;27;20475;-69
2023/04/16 04:30:56;;;;;;;26.13;15.13;;;11.20;99.90;;;;;;5133789;27;20026;-69
2023/04/16 04:33:22;;;;;;;23.25;15.13;;;11.10;99.90;;;;;;5134418;27;20494;-69
2023/04/16 04:35:48;;;;;;;26.23;15.80;;;11.20;99.90;;;;;;5133583;27;20031;-69
2023/04/16 04:38:13;;;;;;;22.77;15.38;;;11.20;99.90;;;;;;5131230;27;20549;-68
2023/04/16 04:40:39;;;;;;;26.60;16.23;;;11.30;99.90;;;;;;5129928;27;20040;-69
2023/04/16 04:43:04;;;;;;;26.42;15.75;;;11.20;99.90;;;;;;5127631;27;20023;-69
2023/04/16 04:45:30;;;;;;;30.55;17.95;;;11.20;99.90;;;;;;5129499;27;20467;-69
2023/04/16 04:47:56;;;;;;;26.00;17.23;;;11.30;99.90;;;;;;5132592;27;20067;-69
2023/04/16 04:50:22;;;;;;;32.53;17.23;;;11.30;99.90;;;;;;5133843;27;20019;-69
2023/04/16 04:52:47;;;;;;;28.67;16.83;;;11.30;99.90;;;;;;5117088;27;20379;-68
2023/04/16 04:55:14;;;;;;;28.65;16.67;;;11.30;99.90;;;;;;5122448;27;20023;-68
2023/04/16 04:57:40;;;;;;;24.23;16.70;;;11.20;99.90;;;;;;5132745;27;20076;-69
2023/04/16 05:00:06;;;;;;;25.60;16.15;;;11.20;99.90;;;;;;5133697;27;20030;-69
2023/04/16 05:02:32;;;;;;;25.58;16.15;;;11.10;99.90;;;;;;5132957;27;20034;-69
2023/04/16 05:04:58;;;;;;;25.23;16.60;;;11.20;99.90;;;;;;5131011;27;20020;-68
2023/04/16 05:07:24;;;;;;;30.23;16.00;;;11.10;99.90;;;;;;5131851;27;20023;-69
2023/04/16 05:09:49;;;;;;;29.05;16.75;;;11.20;99.90;;;;;;5130938;27;20483;-69
2023/04/16 05:12:15;;;;;;;26.75;16.15;;;11.20;99.90;;;;;;5133270;27;20490;-69
2023/04/16 05:14:41;;;;;;;26.80;16.38;;;11.20;99.90;;;;;;5133355;28;20433;-69
2023/04/16 05:17:06;;;;;;;32.63;16.45;;;11.20;99.90;;;;;;5132110;28;20077;-68
2023/04/16 05:19:32;;;;;;;32.90;16.55;;;11.20;99.90;;;;;;5132456;28;20487;-69
2023/04/16 05:21:58;;;;;;;27.85;16.50;;;11.20;99.90;;;;;;5131759;27;20060;-68
2023/04/16 05:24:24;;;;;;;27.52;17.92;;;11.10;99.90;;;;;;5132137;27;20451;-68
2023/04/16 05:26:50;;;;;;;23.98;15.65;;;11.20;99.90;;;;;;5131695;28;20027;-69
2023/04/16 05:29:15;;;;;;;26.35;15.20;;;11.20;99.90;;;;;;5125629;27;20035;-69
2023/04/16 05:31:41;;;;;;;27.60;16.25;;;11.10;99.90;;;;;;5119542;27;20387;-69
2023/04/16 05:34:07;;;;;;;29.48;15.95;;;11.20;99.90;;;;;;5130273;28;20042;-69
2023/04/16 05:36:32;;;;;;;28.27;16.75;;;11.20;99.90;;;;;;5118428;27;20415;-68
2023/04/16 05:38:58;;;;;;;25.95;16.23;;;11.20;99.90;;;;;;5132917;28;20035;-69
2023/04/16 05:41:24;;;;;;;32.70;16.33;;;11.20;99.90;;;;;;5132857;28;20019;-69
2023/04/16 05:43:50;;;;;;;31.02;16.88;;;11.20;99.90;;;;;;5131952;27;20031;-68
2023/04/16 05:46:15;;;;;;;30.98;16.40;;;11.10;99.90;;;;;;5120666;27;20030;-69
2023/04/16 05:48:41;;;;;;;28.50;16.17;;;11.10;99.90;;;;;;5112560;28;20043;-69
2023/04/16 05:51:07;;;;;;;31.00;17.45;;;11.10;99.90;;;;;;5111989;28;20020;-68
2023/04/16 05:53:33;;;;;;;27.88;15.82;;;11.10;99.90;;;;;;5116510;27;20035;-68
2023/04/16 05:55:58;;;;;;;26.70;16.38;;;11.20;99.90;;;;;;5134978;27;20026;-69
2023/04/16 05:58:24;;;;;;;29.27;16.48;;;11.20;99.90;;;;;;5136188;27;20387;-69
2023/04/16 06:00:50;;;;;;;31.98;17.45;;;11.20;99.90;;;;;;5136340;27;20613;-68
2023/04/16 06:03:16;;;;;;;35.20;17.63;;;11.20;99.90;;;;;;5136563;27;20059;-69
2023/04/16 06:05:41;;;;;;;29.95;18.58;;;11.10;99.90;;;;;;5136683;27;20055;-69
2023/04/16 06:08:07;;;;;;;36.35;17.90;;;11.10;99.90;;;;;;5136451;27;20035;-68
2023/04/16 06:10:33;;;;;;;31.92;16.95;;;11.10;99.90;;;;;;5135606;27;20050;-68
2023/04/16 06:12:58;;;;;;;33.72;18.02;;;11.10;99.90;;;;;;5136322;27;20118;-68
2023/04/16 06:15:24;;;;;;;34.15;18.23;;;11.10;99.90;;;;;;5136256;27;20059;-69
2023/04/16 06:17:50;;;;;;;32.70;18.15;;;11.20;99.90;;;;;;5136171;27;20043;-69
2023/04/16 06:20:15;;;;;;;34.92;18.40;;;11.20;99.90;;;;;;5135959;27;20378;-69
2023/04/16 06:22:41;;;;;;;32.75;17.30;;;11.10;99.90;;;;;;5135729;27;20035;-69
2023/04/16 06:25:07;;;;;;;32.92;18.42;;;11.10;99.90;;;;;;5135605;27;20016;-69
2023/04/16 06:27:33;;;;;;;32.05;17.02;;;11.20;99.90;;;;;;5134350;27;20040;-69
2023/04/16 06:29:58;;;;;;;30.52;18.48;;;11.20;99.90;;;;;;5135547;27;20027;-69
2023/04/16 06:32:24;;;;;;;33.92;18.23;;;11.20;99.90;;;;;;5134715;27;20573;-70
2023/04/16 06:34:50;;;;;;;35.65;18.42;;;11.20;99.90;;;;;;5135924;27;20023;-67
2023/04/16 06:37:16;;;;;;;30.88;18.02;;;11.20;99.90;;;;;;5133954;27;20536;-68
2023/04/16 06:39:42;;;;;;;30.98;18.50;;;11.10;99.90;;;;;;5133974;27;20031;-68
2023/04/16 06:42:08;;;;;;;36.13;17.95;;;11.20;99.90;;;;;;5135955;27;20134;-67
2023/04/16 06:44:34;;;;;;;31.67;18.88;;;11.20;99.90;;;;;;5134108;27;20031;-68
2023/04/16 06:47:00;;;;;;;31.60;17.77;;;11.20;99.90;;;;;;5133382;27;20027;-68
2023/04/16 06:49:26;;;;;;;31.73;17.83;;;11.20;99.90;;;;;;5134944;27;20544;-69
2023/04/16 06:51:51;;;;;;;36.70;17.83;;;11.30;99.90;;;;;;5134353;27;20019;-68
2023/04/16 06:54:18;;;;;;;34.28;17.70;;;11.20;99.90;;;;;;5136034;27;20027;-67
2023/04/16 06:56:44;;;;;;;33.58;17.98;;;11.30;99.90;;;;;;5135958;27;20019;-69
2023/04/16 06:59:10;;;;;;;35.50;18.17;;;11.30;99.90;;;;;;5133844;27;20027;-69
2023/04/16 07:01:35;;;;;;;30.98;18.35;;;11.40;99.90;;;;;;5134930;27;20046;-68
2023/04/16 07:04:02;;;;;;;35.35;18.33;;;11.30;99.90;;;;;;5121002;27;20066;-68
2023/04/16 07:06:27;;;;;;;37.60;18.80;;;11.40;99.90;;;;;;5134872;27;20027;-69
2023/04/16 07:08:53;;;;;;;38.13;18.55;;;11.40;99.90;;;;;;5135654;27;20419;-68
2023/04/16 07:11:19;;;;;;;34.10;19.23;;;11.40;99.90;;;;;;5135107;27;20031;-69
2023/04/16 07:13:45;;;;;;;33.17;19.15;;;11.40;99.90;;;;;;5135179;27;20118;-68
2023/04/16 07:16:11;;;;;;;31.63;19.20;;;11.40;99.90;;;;;;5133347;27;20448;-69
2023/04/16 07:18:36;;;;;;;37.13;19.00;;;11.50;99.90;;;;;;5129898;27;20023;-70
2023/04/16 07:21:03;;;;;;;34.03;19.30;;;11.50;99.90;;;;;;5134879;27;20102;-69
2023/04/16 07:23:29;;;;;;;43.03;20.52;;;11.50;99.90;;;;;;5119497;27;20081;-68
2023/04/16 07:25:55;;;;;;;30.90;18.15;;;11.50;99.90;;;;;;5112974;27;20026;-69
2023/04/16 07:28:21;;;;;;;32.53;18.50;;;11.50;99.90;;;;;;5112652;28;20044;-68
2023/04/16 07:30:46;;;;;;;37.08;18.88;;;11.50;99.90;;;;;;5121426;27;20468;-68
2023/04/16 07:33:12;;;;;;;36.42;18.42;;;11.50;99.90;;;;;;5133731;27;20051;-68
2023/04/16 07:35:38;;;;;;;31.58;17.20;;;11.50;99.90;;;;;;5134504;27;20019;-69
2023/04/16 07:38:03;;;;;;;30.08;17.50;;;11.50;99.90;;;;;;5132748;27;20517;-69
2023/04/16 07:40:29;;;;;;;37.50;18.88;;;11.50;99.90;;;;;;5133374;27;20076;-68
2023/04/16 07:42:55;;;;;;;35.58;19.35;;;11.50;99.90;;;;;;5133997;27;20042;-68
2023/04/16 07:45:21;;;;;;;34.80;18.75;;;11.50;99.90;;;;;;5134601;27;20029;-69
2023/04/16 07:47:46;;;;;;;32.38;17.20;;;11.60;99.90;;;;;;5134375;27;20035;-68
2023/04/16 07:50:12;;;;;;;34.42;18.27;;;11.60;99.90;;;;;;5134095;27;20031;-68
2023/04/16 07:52:40;;;;;;;35.58;18.25;;;11.70;99.90;;;;;;5133346;27;20026;-68
2023/04/16 07:55:09;;;;;;;40.42;18.13;;;11.70;99.90;;;;;;5134595;27;20053;-69
2023/04/16 07:57:35;;;;;;;32.20;16.63;;;11.70;99.90;;;;;;5134253;27;20091;-69
2023/04/16 08:00:03;;;;;;;34.95;18.08;;;11.70;99.90;;;;;;5134088;27;20439;-70
2023/04/16 08:02:29;;;;;;;33.22;17.90;;;11.70;99.90;;;;;;5134070;27;20019;-69
2023/04/16 08:04:55;;;;;;;39.38;18.92;;;11.80;99.90;;;;;;5132994;27;20019;-69
2023/04/16 08:07:21;;;;;;;34.40;17.83;;;11.70;99.90;;;;;;5134249;27;20487;-69
2023/04/16 08:09:48;;;;;;;28.23;17.40;;;11.70;99.90;;;;;;5133719;27;20015;-70
2023/04/16 08:12:16;;;;;;;41.42;19.17;;;11.70;99.90;;;;;;5132108;27;20031;-70
2023/04/16 08:14:41;;;;;;;33.45;17.83;;;11.80;99.90;;;;;;5132619;27;20356;-69
2023/04/16 08:17:07;;;;;;;36.88;18.33;;;11.80;99.90;;;;;;5133099;27;20023;-69
2023/04/16 08:19:34;;;;;;;30.65;15.82;;;11.80;99.90;;;;;;5134050;27;20096;-69
2023/04/16 08:22:00;;;;;;;32.60;18.20;;;11.80;99.90;;;;;;5133310;27;20015;-70
2023/04/16 08:24:25;;;;;;;30.80;17.48;;;11.80;99.90;;;;;;5133202;27;20072;-72
2023/04/16 08:26:51;;;;;;;37.03;18.50;;;11.80;99.90;;;;;;5133450;27;20023;-70
2023/04/16 08:29:17;;;;;;;29.95;18.63;;;11.80;99.90;;;;;;5133702;27;20376;-69
2023/04/16 08:31:43;;;;;;;32.03;18.52;;;11.80;99.90;;;;;;5133547;27;20022;-69
2023/04/16 08:34:10;;;;;;;34.75;16.27;;;11.80;99.90;;;;;;5132679;27;20055;-69
2023/04/16 08:36:36;;;;;;;28.35;17.40;;;11.80;99.90;;;;;;5132643;27;20018;-69
2023/04/16 08:39:01;;;;;;;31.30;17.77;;;11.80;99.90;;;;;;5132565;27;20027;-68
2023/04/16 08:41:33;;;;;;;32.35;16.95;;;11.80;99.90;;;;;;5131783;27;20030;-69
2023/04/16 08:44:04;;;;;;;32.72;18.95;;;11.90;99.90;;;;;;5132213;27;20068;-69
2023/04/16 08:46:32;;;;;;;39.90;19.23;;;11.90;99.90;;;;;;5133244;27;20473;-69
2023/04/16 08:48:59;;;;;;;36.78;19.52;;;11.90;99.90;;;;;;5132560;27;20031;-68
2023/04/16 08:51:28;;;;;;;35.30;19.17;;;11.90;99.90;;;;;;5132409;27;20523;-69
2023/04/16 08:54:03;;;;;;;39.25;19.33;;;11.90;99.90;;;;;;5132707;27;20030;-69
2023/04/16 08:56:30;;;;;;;38.05;20.05;;;12.00;99.90;;;;;;5132654;27;20023;-68
2023/04/16 08:58:57;;;;;;;45.22;20.23;;;12.00;99.90;;;;;;5133718;27;20163;-69
2023/04/16 09:01:25;;;;;;;38.67;18.88;;;12.00;99.90;;;;;;5133082;27;20051;-69
2023/04/16 09:03:51;;;;;;;40.55;19.70;;;12.00;99.90;;;;;;5134023;27;20438;-70
2023/04/16 09:06:18;;;;;;;34.33;18.90;;;12.00;99.90;;;;;;5133061;27;20031;-69
2023/04/16 09:08:45;;;;;;;37.50;18.65;;;12.00;99.90;;;;;;5133744;27;20031;-70
2023/04/16 09:11:12;;;;;;;33.05;17.98;;;11.90;99.90;;;;;;5130540;27;20503;-69
2023/04/16 09:13:38;;;;;;;42.33;19.13;;;11.90;99.90;;;;;;5132943;27;20061;-69
2023/04/16 09:16:07;;;;;;;36.05;18.90;;;12.00;99.90;;;;;;5131897;28;20023;-69
2023/04/16 09:18:33;;;;;;;34.70;18.25;;;12.00;99.90;;;;;;5133241;27;20531;-69
2023/04/16 09:20:58;;;;;;;40.00;18.73;;;12.00;99.90;;;;;;5132940;27;20098;-68
2023/04/16 09:23:24;;;;;;;40.30;18.83;;;12.10;99.90;;;;;;5133538;27;20422;-69
2023/04/16 09:25:50;;;;;;;36.45;17.88;;;12.10;99.90;;;;;;5135030;27;20023;-69
2023/04/16 09:28:41;;;;;;;37.50;18.75;;;12.10;99.90;;;;;;5136664;27;20031;-70
2023/04/16 09:31:17;;;;;;;41.13;18.95;;;12.10;99.90;;;;;;5135288;27;20024;-69
2023/04/16 09:34:03;;;;;;;40.38;19.63;;;12.20;99.90;;;;;;5134766;27;20041;-69
2023/04/16 09:36:30;;;;;;;41.70;19.33;;;12.20;99.90;;;;;;5136012;27;20023;-68
2023/04/16 09:38:56;;;;;;;34.97;18.52;;;12.10;99.90;;;;;;5136543;27;20051;-69
2023/04/16 09:41:34;;;;;;;40.30;18.88;;;12.10;99.90;;;;;;5135884;27;20456;-69
2023/04/16 09:44:03;;;;;;;36.42;16.92;;;12.00;99.90;;;;;;5135908;27;20065;-68
2023/04/16 09:46:40;;;;;;;42.67;21.02;;;12.10;99.90;;;;;;5136384;27;20537;-70
2023/04/16 09:49:14;;;;;;;41.80;20.15;;;12.10;99.90;;;;;;5136831;27;20106;-69
2023/04/16 09:51:48;;;;;;;42.70;22.23;;;12.10;99.90;;;;;;5135391;27;20100;-71
2023/04/16 09:54:14;;;;;;;45.10;20.02;;;12.20;99.90;;;;;;5136259;27;20019;-69
2023/04/16 09:56:42;;;;;;;41.95;22.08;;;12.20;99.90;;;;;;5133561;27;20023;-69
2023/04/16 09:59:15;;;;;;;51.00;22.00;;;12.20;99.90;;;;;;5134210;27;20031;-69
2023/04/16 10:01:41;;;;;;;39.08;20.63;;;12.20;99.90;;;;;;5135000;27;20027;-69
2023/04/16 10:04:07;;;;;;;43.63;21.35;;;12.20;99.90;;;;;;5135346;27;20020;-70
2023/04/16 10:06:33;;;;;;;40.65;21.33;;;12.20;99.90;;;;;;5136658;27;20027;-70
2023/04/16 10:08:58;;;;;;;45.78;23.70;;;12.10;99.90;;;;;;5136610;27;20066;-71
2023/04/16 10:11:25;;;;;;;43.10;20.83;;;12.10;99.90;;;;;;5098082;27;20027;-70
2023/04/16 10:13:51;;;;;;;49.33;20.20;;;12.10;99.90;;;;;;5118059;27;20028;-71
2023/04/16 10:16:17;;;;;;;41.20;20.90;;;12.20;99.90;;;;;;5114249;27;20539;-70
2023/04/16 10:18:44;;;;;;;44.85;20.02;;;12.30;99.90;;;;;;5115053;27;20543;-71
2023/04/16 10:21:11;;;;;;;47.67;20.00;;;12.30;99.90;;;;;;5117325;27;20020;-70
2023/04/16 10:23:41;;;;;;;42.78;21.33;;;12.30;99.90;;;;;;5120017;27;20485;-70
2023/04/16 10:26:07;;;;;;;43.63;20.55;;;12.40;99.90;;;;;;5118658;27;20023;-70
2023/04/16 10:28:36;;;;;;;43.33;21.67;;;12.40;99.90;;;;;;5116162;27;20036;-70
2023/04/16 10:31:05;;;;;;;53.72;21.63;;;12.40;99.90;;;;;;5115141;27;20027;-70
2023/04/16 10:33:33;;;;;;;44.58;20.27;;;12.30;99.90;;;;;;5118360;27;20103;-71
2023/04/16 10:36:15;;;;;;;47.75;21.52;;;12.40;99.90;;;;;;5117010;27;20030;-70
2023/04/16 10:38:53;;;;;;;43.27;20.93;;;12.40;99.90;;;;;;5113990;27;20050;-70
2023/04/16 10:41:19;;;;;;;45.17;20.20;;;12.40;99.90;;;;;;5117115;27;20857;-70
2023/04/16 10:43:47;;;;;;;38.00;20.50;;;12.40;99.90;;;;;;5118422;27;20083;-70
2023/04/16 10:46:30;;;;;;;46.20;22.27;;;12.40;99.90;;;;;;5114803;27;20028;-71
2023/04/16 10:49:01;;;;;;;41.80;20.90;;;12.40;99.90;;;;;;5118697;27;20512;-70
2023/04/16 10:51:32;;;;;;;41.22;21.95;;;12.40;99.90;;;;;;5113316;27;20059;-70
2023/04/16 10:54:07;;;;;;;49.25;21.15;;;12.40;99.90;;;;;;5116066;27;20049;-70
2023/04/16 10:56:34;;;;;;;47.13;20.92;;;12.40;99.90;;;;;;5116286;27;20041;-71
2023/04/16 10:59:03;;;;;;;41.15;20.27;;;12.50;99.90;;;;;;5114293;27;20517;-70
2023/04/16 11:01:31;;;;;;;44.92;22.15;;;12.50;99.90;;;;;;5116515;27;20069;-71
2023/04/16 11:04:20;;;;;;;52.88;22.35;;;12.50;99.90;;;;;;5114436;27;20107;-71
2023/04/16 11:07:15;;;;;;;45.30;20.20;;;12.50;99.90;;;;;;5114870;27;20023;-71
2023/04/16 11:09:45;;;;;;;42.92;20.70;;;12.60;99.90;;;;;;5113704;27;20084;-71
2023/04/16 11:12:17;;;;;;;51.90;22.50;;;12.60;99.90;;;;;;5116528;27;20038;-71
2023/04/16 11:14:50;;;;;;;45.72;21.17;;;12.60;99.90;;;;;;5120980;27;20030;-70
2023/04/16 11:17:16;;;;;;;46.35;22.00;;;12.60;99.90;;;;;;5114738;27;20019;-71
2023/04/16 11:19:42;;;;;;;45.30;21.90;;;12.60;99.90;;;;;;5115342;27;20035;-70
2023/04/16 11:22:12;;;;;;;41.38;21.52;;;12.60;99.90;;;;;;5112444;27;20349;-71
2023/04/16 11:24:39;;;;;;;43.33;21.42;;;12.60;99.90;;;;;;5116557;27;22911;-71
2023/04/16 11:27:06;;;;;;;41.65;20.75;;;12.60;99.90;;;;;;5116111;27;20102;-70
2023/04/16 11:29:32;;;;;;;47.58;21.27;;;12.60;99.90;;;;;;5117683;27;20027;-71
2023/04/16 11:31:57;;;;;;;43.42;21.80;;;12.50;99.90;;;;;;5113776;27;20023;-70
2023/04/16 11:34:24;;;;;;;42.97;21.02;;;12.60;99.90;;;;;;5118502;27;20475;-70
2023/04/16 11:36:51;;;;;;;38.72;21.92;;;12.60;99.90;;;;;;5115019;27;20093;-71
2023/04/16 11:39:17;;;;;;;44.72;21.65;;;12.60;99.90;;;;;;5118543;27;20023;-70
2023/04/16 11:41:47;;;;;;;41.58;20.55;;;12.60;99.90;;;;;;5119578;27;21439;-70
2023/04/16 11:44:21;;;;;;;38.80;21.05;;;12.60;99.90;;;;;;5116324;27;20383;-71
2023/04/16 11:46:47;;;;;;;43.10;22.02;;;12.60;99.90;;;;;;5116312;27;20099;-69
2023/04/16 11:49:14;;;;;;;41.08;21.55;;;12.70;99.90;;;;;;5115389;27;20080;-71
2023/04/16 11:51:46;;;;;;;40.97;20.45;;;12.70;99.90;;;;;;5113476;27;20016;-71
2023/04/16 11:54:19;;;;;;;38.58;20.02;;;12.70;99.90;;;;;;5115225;27;20499;-70
2023/04/16 11:56:46;;;;;;;46.30;22.02;;;12.70;99.90;;;;;;5114856;27;20071;-70
2023/04/16 11:59:15;;;;;;;46.08;22.10;;;12.70;99.90;;;;;;5117491;27;20019;-71
2023/04/16 12:01:44;;;;;;;37.63;19.55;;;12.70;99.90;;;;;;5114346;27;20098;-72
2023/04/16 12:04:12;;;;;;;33.22;19.98;;;12.70;99.90;;;;;;5113978;27;20026;-70
2023/04/16 12:06:37;;;;;;;33.53;18.88;;;12.80;99.90;;;;;;5113646;27;20035;-70
2023/04/16 12:09:23;;;;;;;36.20;19.38;;;12.80;99.90;;;;;;5117921;27;20038;-70
2023/04/16 12:11:49;;;;;;;41.05;18.40;;;12.80;99.90;;;;;;5115703;27;20027;-70
2023/04/16 12:14:15;;;;;;;33.65;16.85;;;12.80;99.90;;;;;;5115471;27;20056;-70
2023/04/16 12:16:40;;;;;;;34.47;19.30;;;12.80;99.90;;;;;;5113302;27;20119;-70
2023/04/16 12:19:10;;;;;;;36.38;18.17;;;12.80;99.90;;;;;;5114271;27;20506;-70
2023/04/16 12:21:40;;;;;;;38.72;21.13;;;12.80;99.90;;;;;;5116637;27;20102;-70
2023/04/16 12:24:07;;;;;;;39.72;21.38;;;12.80;99.90;;;;;;5111162;27;20054;-71
2023/04/16 12:26:44;;;;;;;37.63;20.73;;;12.90;99.90;;;;;;5110695;27;20106;-70
2023/04/16 12:29:24;;;;;;;41.58;21.10;;;13.00;99.90;;;;;;5114979;27;20123;-70